createdAt,value
2022-08-05T00:01:28.535Z,4.50
2022-08-05T00:04:02.750Z,4.80
2022-08-05T00:06:44.657Z,5.10
2022-08-05T00:09:36.948Z,4.70
2022-08-05T00:12:13.148Z,5.10
2022-08-05T00:14:45.836Z,4.90
2022-08-05T00:17:23.070Z,4.20
2022-08-05T00:20:03.139Z,4.00
2022-08-05T00:22:36.164Z,4.00
2022-08-05T00:27:59.574Z,4.00
2022-08-05T00:30:32.156Z,4.10
2022-08-05T00:33:02.920Z,4.40
2022-08-05T00:35:34.153Z,4.00
2022-08-05T00:38:28.744Z,4.20
2022-08-05T00:41:12.634Z,4.90
2022-08-05T00:46:36.926Z,4.60
2022-08-05T00:49:26.495Z,4.10
2022-08-05T00:52:11.607Z,3.90
2022-08-05T00:54:52.337Z,4.50
2022-08-05T00:57:38.292Z,4.30
2022-08-05T01:00:22.018Z,4.80
2022-08-05T01:03:02.240Z,4.40
2022-08-05T01:05:45.796Z,4.20
2022-08-05T01:08:41.410Z,4.30
2022-08-05T01:11:13.496Z,4.30
2022-08-05T01:14:28.251Z,4.30
2022-08-05T01:17:16.375Z,4.30
2022-08-05T01:20:01.023Z,4.30
2022-08-05T01:23:14.322Z,4.40
2022-08-05T01:26:04.294Z,4.30
2022-08-05T01:28:49.166Z,4.80
2022-08-05T01:32:00.360Z,4.70
2022-08-05T01:34:39.348Z,5.00
2022-08-05T01:37:25.222Z,4.10
2022-08-05T01:40:03.045Z,4.90
2022-08-05T01:42:34.043Z,4.70
2022-08-05T01:45:09.965Z,4.10
2022-08-05T01:47:43.187Z,4.50
2022-08-05T01:50:18.163Z,4.50
2022-08-05T01:52:59.435Z,4.60
2022-08-05T01:55:36.501Z,5.00
2022-08-05T01:58:15.809Z,4.80
2022-08-05T02:00:55.886Z,4.30
2022-08-05T02:03:34.071Z,4.30
2022-08-05T02:06:33.191Z,4.00
2022-08-05T02:09:00.485Z,4.20
2022-08-05T02:11:37.743Z,4.40
2022-08-05T02:14:24.913Z,4.30
2022-08-05T02:17:04.657Z,4.70
2022-08-05T02:19:46.929Z,4.50
2022-08-05T02:22:41.834Z,3.90
2022-08-05T02:25:18.073Z,4.30
2022-08-05T02:27:59.332Z,4.40
2022-08-05T02:30:38.678Z,4.20
2022-08-05T02:33:35.964Z,5.00
2022-08-05T02:36:15.550Z,5.10
2022-08-05T02:38:52.897Z,4.50
2022-08-05T02:41:28.651Z,4.30
2022-08-05T02:44:17.470Z,4.20
2022-08-05T02:46:59.928Z,4.30
2022-08-05T02:49:36.879Z,4.40
2022-08-05T02:52:11.533Z,4.10
2022-08-05T02:54:50.727Z,4.80
2022-08-05T02:58:10.418Z,5.00
2022-08-05T03:00:14.555Z,4.10
2022-08-05T03:02:45.182Z,4.30
2022-08-05T03:05:15.441Z,4.30
2022-08-05T03:08:06.911Z,5.30
2022-08-05T03:11:55.742Z,5.20
2022-08-05T03:13:51.838Z,4.70
2022-08-05T03:16:28.212Z,4.80
2022-08-05T03:18:56.591Z,4.50
2022-08-05T03:21:29.185Z,5.30
2022-08-05T03:24:15.092Z,5.60
2022-08-05T03:26:43.641Z,4.80
2022-08-05T03:29:19.114Z,5.00
2022-08-05T03:31:56.488Z,4.70
2022-08-05T03:34:28.032Z,4.80
2022-08-05T03:36:58.966Z,5.40
2022-08-05T03:39:27.776Z,4.90
2022-08-05T03:42:02.279Z,4.60
2022-08-05T03:44:30.908Z,5.00
2022-08-05T03:47:01.452Z,4.60
2022-08-05T03:49:51.121Z,4.60
2022-08-05T03:52:37.866Z,5.70
2022-08-05T03:56:05.845Z,5.10
2022-08-05T03:58:43.153Z,4.30
2022-08-05T04:01:20.984Z,4.80
2022-08-05T04:04:05.395Z,4.40
2022-08-05T04:06:47.862Z,4.50
2022-08-05T04:09:26.299Z,5.10
2022-08-05T04:12:03.294Z,5.00
2022-08-05T04:14:58.938Z,4.60
2022-08-05T04:17:56.581Z,4.40
2022-08-05T04:20:28.060Z,4.30
2022-08-05T04:25:56.543Z,4.80
2022-08-05T04:28:17.207Z,4.90
2022-08-05T04:30:47.013Z,4.90
2022-08-05T04:33:18.140Z,5.40
2022-08-05T04:36:38.616Z,5.00
2022-08-05T04:39:02.490Z,5.60
2022-08-05T04:41:37.774Z,5.00
2022-08-05T04:44:09.498Z,5.00
2022-08-05T04:46:43.547Z,4.80
2022-08-05T04:49:16.009Z,5.00
2022-08-05T04:52:00.235Z,4.90
2022-08-05T04:54:27.719Z,4.60
2022-08-05T04:56:59.677Z,4.90
2022-08-05T04:59:38.628Z,4.40
2022-08-05T05:02:36.620Z,5.10
2022-08-05T05:05:02.288Z,4.90
2022-08-05T05:07:36.024Z,4.50
2022-08-05T05:10:11.456Z,3.90
2022-08-05T05:12:45.961Z,4.90
2022-08-05T05:15:54.250Z,6.60
2022-08-05T05:18:31.506Z,4.70
2022-08-05T05:21:05.553Z,5.00
2022-08-05T05:24:01.937Z,4.60
2022-08-05T05:26:28.611Z,4.10
2022-08-05T05:29:02.360Z,4.00
2022-08-05T05:34:03.136Z,3.80
2022-08-05T05:36:35.415Z,4.10
2022-08-05T05:39:10.916Z,3.70
2022-08-05T05:41:41.959Z,3.70
2022-08-05T05:44:35.680Z,3.60
2022-08-05T05:47:22.065Z,3.90
2022-08-05T05:50:01.760Z,3.50
2022-08-05T05:52:40.540Z,3.60
2022-08-05T05:55:13.943Z,3.70
2022-08-05T05:57:52.773Z,3.50
2022-08-05T06:00:34.061Z,3.70
2022-08-05T06:03:40.210Z,4.00
2022-08-05T06:06:08.756Z,3.70
2022-08-05T06:08:36.483Z,3.50
2022-08-05T06:11:13.452Z,3.60
2022-08-05T06:13:50.656Z,4.00
2022-08-05T06:16:28.431Z,3.50
2022-08-05T06:19:09.808Z,3.00
2022-08-05T06:24:35.082Z,3.60
2022-08-05T06:27:17.316Z,3.10
2022-08-05T06:30:17.707Z,3.20
2022-08-05T06:32:54.198Z,3.10
2022-08-05T06:36:07.802Z,4.10
2022-08-05T06:38:17.290Z,2.90
2022-08-05T06:41:26.974Z,3.30
2022-08-05T06:44:00.608Z,3.30
2022-08-05T06:46:50.777Z,3.00
2022-08-05T06:50:00.406Z,3.40
2022-08-05T06:52:36.876Z,3.50
2022-08-05T06:55:11.863Z,3.40
2022-08-05T07:00:35.884Z,3.20
2022-08-05T07:03:11.006Z,4.10
2022-08-05T07:05:41.596Z,3.30
2022-08-05T07:08:11.272Z,3.30
2022-08-05T07:10:53.279Z,3.30
2022-08-05T07:13:58.357Z,3.90
2022-08-05T07:18:00.225Z,3.70
2022-08-05T07:26:07.235Z,3.20
2022-08-05T07:31:53.914Z,3.70
2022-08-05T07:36:57.737Z,3.40
2022-08-05T07:40:26.131Z,3.20
2022-08-05T07:42:33.557Z,3.40
2022-08-05T07:45:11.462Z,2.70
2022-08-05T07:47:44.462Z,7.10
2022-08-05T07:52:52.630Z,4.00
2022-08-05T07:55:44.335Z,3.50
2022-08-05T07:58:58.616Z,2.90
2022-08-05T08:01:17.198Z,2.90
2022-08-05T08:04:22.970Z,2.90
2022-08-05T08:07:17.706Z,2.70
2022-08-05T08:13:11.570Z,4.80
2022-08-05T08:16:35.596Z,3.40
2022-08-05T08:20:22.899Z,2.90
2022-08-05T08:22:52.989Z,3.30
2022-08-05T08:25:59.299Z,3.10
2022-08-05T08:28:59.035Z,2.80
2022-08-05T08:35:03.275Z,2.60
2022-08-05T08:37:45.093Z,2.80
2022-08-05T08:40:35.852Z,2.50
2022-08-05T08:45:17.974Z,2.90
2022-08-05T08:46:47.580Z,2.70
2022-08-05T08:56:05.583Z,2.70
2022-08-05T09:02:21.920Z,3.50
2022-08-05T09:08:09.849Z,2.30
2022-08-05T09:10:53.581Z,3.10
2022-08-05T09:16:59.217Z,2.80
2022-08-05T09:20:01.810Z,2.50
2022-08-05T09:23:43.474Z,6.80
2022-08-05T09:26:45.199Z,2.50
2022-08-05T09:30:06.051Z,2.70
2022-08-05T09:32:49.100Z,2.70
2022-08-05T09:36:16.650Z,2.90
2022-08-05T09:39:45.566Z,2.40
2022-08-05T09:42:44.111Z,2.50
2022-08-05T09:46:06.828Z,2.50
2022-08-05T09:49:07.077Z,2.80
2022-08-05T09:52:35.186Z,2.10
2022-08-05T09:55:56.621Z,2.50
2022-08-05T09:59:06.414Z,2.50
2022-08-05T10:11:31.330Z,2.10
2022-08-05T10:17:47.069Z,4.10
2022-08-05T10:20:38.506Z,2.40
2022-08-05T10:23:34.602Z,1.90
2022-08-05T10:32:54.860Z,1.80
2022-08-05T10:40:03.138Z,2.10
2022-08-05T10:42:52.752Z,2.20
2022-08-05T10:56:28.005Z,2.40
2022-08-05T11:03:26.963Z,2.00
2022-08-05T11:25:01.603Z,2.30
2022-08-05T11:31:54.183Z,1.70
